Time;durP1;ratioP1;P1;durP2;ratioP2;P2;SDS_P1;SDS_P2;PMS_P1;PMS_P2;Temp;Humidity;BMP_temperature;BMP_pressure;BME280_temperature;BME280_humidity;BME280_pressure;Samples;Min_cycle;Max_cycle;Signal;HPM_P1;HPM_P2
2022/11/28 00:00:08;;;;;;;0.60;0.60;;;;;;;3.57;76.98;96709.69;29394;210;64013;-71
2022/11/28 00:00:41;;;;;;;0.50;0.50;;;;;;;3.53;77.30;96719.31;29395;237;63005;-55
2022/11/28 00:01:21;;;;;;;0.50;0.50;;;;;;;3.50;77.35;96722.47;29395;326;63009;-55
2022/11/28 00:01:52;;;;;;;0.60;0.60;;;;;;;3.48;77.43;96722.72;29395;267;63005;-55
2022/11/28 00:02:23;;;;;;;0.60;0.60;;;;;;;3.48;77.77;96721.91;29395;314;63009;-55
2022/11/28 00:02:55;;;;;;;0.60;0.60;;;;;;;3.48;77.95;96724.59;29395;235;63004;-56
2022/11/28 00:03:26;;;;;;;0.60;0.60;;;;;;;3.47;78.00;96728.34;29395;239;63009;-55
2022/11/28 00:03:58;;;;;;;0.60;0.60;;;;;;;3.45;78.23;96725.94;29395;295;63004;-55
2022/11/28 00:04:29;;;;;;;0.50;0.50;;;;;;;3.44;78.73;96734.25;29395;199;63009;-55
2022/11/28 00:05:01;;;;;;;0.60;0.60;;;;;;;3.41;78.78;96722.16;29395;218;63004;-55
2022/11/28 00:05:35;;;;;;;0.60;0.60;;;;;;;3.42;78.66;96712.22;29394;214;64013;-55
2022/11/28 00:07:13;;;;;;;0.60;0.60;;;;;;;3.47;78.72;96714.94;88178;215;64004;-56
2022/11/28 00:07:44;;;;;;;0.50;0.50;;;;;;;3.50;77.81;96704.50;29394;202;64009;-56
2022/11/28 00:08:15;;;;;;;0.60;0.60;;;;;;;3.56;77.42;96710.75;29395;202;63005;-55
2022/11/28 00:08:46;;;;;;;0.60;0.60;;;;;;;3.58;76.99;96711.31;29395;399;63009;-55
2022/11/28 00:09:19;;;;;;;0.60;0.60;;;;;;;3.58;76.85;96708.63;29395;205;63005;-55
2022/11/28 00:09:54;;;;;;;0.50;0.50;;;;;;;3.55;76.84;96706.44;29395;209;63020;-55
2022/11/28 00:10:25;;;;;;;1.77;1.70;;;;;;;3.52;77.88;96712.31;29395;212;63004;-55
2022/11/28 00:10:57;;;;;;;0.50;0.50;;;;;;;3.47;78.07;96701.53;29394;222;64013;-55
2022/11/28 00:11:28;;;;;;;0.52;0.52;;;;;;;3.44;78.25;96707.41;29395;224;63004;-55
2022/11/28 00:11:59;;;;;;;0.60;0.60;;;;;;;3.40;78.21;96695.56;29395;212;63016;-55
2022/11/28 00:12:34;;;;;;;0.60;0.60;;;;;;;3.39;78.32;96702.00;29395;229;63004;-56
2022/11/28 00:13:07;;;;;;;0.60;0.60;;;;;;;3.36;78.46;96704.12;29395;202;63008;-56
2022/11/28 00:13:39;;;;;;;0.60;0.60;;;;;;;3.36;78.70;96709.47;29395;293;63005;-54
2022/11/28 00:14:11;;;;;;;0.52;0.52;;;;;;;3.35;78.69;96707.87;29395;286;63009;-55
2022/11/28 00:14:45;;;;;;;0.60;0.60;;;;;;;3.35;78.63;96715.91;29395;198;63009;-55
2022/11/28 00:15:16;;;;;;;0.60;0.60;;;;;;;3.37;78.47;96719.16;29395;233;63009;-55
2022/11/28 00:15:58;;;;;;;0.60;0.60;;;;;;;3.41;79.12;96721.34;29395;262;63011;-56
2022/11/28 00:16:29;;;;;;;0.60;0.60;;;;;;;3.41;78.93;96715.97;29394;279;64013;-55
2022/11/28 00:17:01;;;;;;;0.60;0.60;;;;;;;3.42;78.82;96712.22;29394;281;64009;-55
2022/11/28 00:17:32;;;;;;;0.60;0.60;;;;;;;3.41;78.62;96711.41;29395;241;63009;-55
2022/11/28 00:18:04;;;;;;;0.60;0.60;;;;;;;3.41;78.70;96721.34;29395;211;63004;-55
2022/11/28 00:18:35;;;;;;;0.60;0.60;;;;;;;3.41;78.82;96715.97;29395;224;63009;-55
2022/11/28 00:19:07;;;;;;;0.60;0.60;;;;;;;3.40;78.98;96717.03;29395;283;63004;-55
2022/11/28 00:19:38;;;;;;;0.60;0.60;;;;;;;3.39;78.65;96723.44;29395;252;63009;-55
2022/11/28 00:20:10;;;;;;;0.52;0.52;;;;;;;3.36;78.83;96722.91;29395;202;63009;-55
2022/11/28 00:20:42;;;;;;;0.60;0.60;;;;;;;3.35;78.77;96721.28;29395;217;63008;-55
2022/11/28 00:22:21;;;;;;;0.63;0.63;;;;;;;3.35;79.30;96723.16;88174;202;64005;-55
2022/11/28 00:22:53;;;;;;;0.60;0.60;;;;;;;3.34;79.16;96727.69;29394;241;64009;-55
2022/11/28 00:23:24;;;;;;;0.57;0.57;;;;;;;3.34;79.65;96721.53;29395;228;63005;-55
2022/11/28 00:23:56;;;;;;;0.60;0.60;;;;;;;3.32;80.01;96724.44;29395;202;63009;-55
2022/11/28 00:24:27;;;;;;;0.60;0.60;;;;;;;3.31;80.09;96722.81;29395;217;63005;-55
2022/11/28 00:24:59;;;;;;;0.60;0.60;;;;;;;3.29;79.71;96714.22;29395;202;63009;-55
2022/11/28 00:25:30;;;;;;;0.60;0.60;;;;;;;3.32;79.78;96713.72;29395;214;63005;-56
2022/11/28 00:26:05;;;;;;;0.60;0.60;;;;;;;3.33;79.08;96707.31;29395;239;63009;-55
2022/11/28 00:26:39;;;;;;;0.60;0.60;;;;;;;3.35;79.25;96707.87;29395;214;63005;-55
2022/11/28 00:27:11;;;;;;;0.55;0.55;;;;;;;3.34;78.93;96706.25;29395;225;63009;-55
2022/11/28 00:27:42;;;;;;;0.50;0.50;;;;;;;3.34;79.10;96708.91;29395;230;63004;-55
2022/11/28 00:28:13;;;;;;;0.60;0.60;;;;;;;3.33;78.85;96709.97;29394;218;64013;-55
2022/11/28 00:28:47;;;;;;;0.60;0.60;;;;;;;3.31;79.22;96712.09;29395;239;63004;-55
2022/11/28 00:29:18;;;;;;;0.60;0.60;;;;;;;3.31;79.34;96712.09;29395;224;63023;-56
2022/11/28 00:29:55;;;;;;;0.70;0.70;;;;;;;3.31;79.63;96709.41;29395;254;63006;-55
2022/11/28 00:30:27;;;;;;;0.60;0.60;;;;;;;3.32;80.08;96712.91;29394;205;64014;-55
2022/11/28 00:30:58;;;;;;;0.50;0.50;;;;;;;3.29;80.29;96708.84;29395;240;63005;-56
2022/11/28 00:31:32;;;;;;;0.60;0.60;;;;;;;3.28;80.17;96712.59;29395;206;63009;-56
2022/11/28 00:32:04;;;;;;;0.60;0.60;;;;;;;3.27;80.84;96704.81;29395;199;63005;-55
2022/11/28 00:32:39;;;;;;;0.60;0.60;;;;;;;3.24;80.49;96711.47;29395;243;63019;-55
2022/11/28 00:33:10;;;;;;;0.60;0.60;;;;;;;3.23;80.53;96709.84;29395;230;63005;-55
2022/11/28 00:33:41;;;;;;;0.68;0.68;;;;;;;3.22;80.35;96710.91;29395;289;63005;-56
2022/11/28 00:34:14;;;;;;;0.60;0.60;;;;;;;3.22;80.64;96708.22;29395;248;63005;-55
2022/11/28 00:34:48;;;;;;;0.60;0.60;;;;;;;3.21;80.47;96709.28;29394;223;64013;-55
2022/11/28 00:35:20;;;;;;;0.50;0.50;;;;;;;3.23;80.32;96709.03;29395;214;63004;-55
2022/11/28 00:35:56;;;;;;;0.60;0.60;;;;;;;3.23;80.38;96707.19;29395;211;63009;-55
2022/11/28 00:37:36;;;;;;;0.56;0.56;;;;;;;3.25;79.94;96702.38;88174;210;64004;-54
2022/11/28 00:38:07;;;;;;;0.60;0.60;;;;;;;3.26;79.97;96703.19;29394;269;64009;-56
2022/11/28 00:38:39;;;;;;;0.60;0.60;;;;;;;3.28;79.73;96701.88;29395;249;63004;-55
2022/11/28 00:39:12;;;;;;;0.50;0.50;;;;;;;3.32;79.12;96703.00;29395;235;63009;-55
2022/11/28 00:39:43;;;;;;;0.60;0.60;;;;;;;3.33;79.18;96707.31;29394;202;64009;-55
2022/11/28 00:40:16;;;;;;;0.50;0.50;;;;;;;3.32;79.16;96707.56;29395;231;63009;-71
2022/11/28 00:40:48;;;;;;;0.60;0.60;;;;;;;3.30;79.89;96707.81;29395;263;63004;-55
2022/11/28 00:41:22;;;;;;;0.50;0.50;;;;;;;3.27;79.96;96705.63;29395;200;63008;-55
2022/11/28 00:41:53;;;;;;;0.60;0.60;;;;;;;3.26;79.81;96709.34;29394;202;64008;-55
2022/11/28 00:42:24;;;;;;;0.60;0.60;;;;;;;3.27;79.93;96702.13;29394;199;64013;-56
2022/11/28 00:42:56;;;;;;;0.60;0.60;;;;;;;3.27;79.86;96705.63;29395;198;63005;-55
2022/11/28 00:43:28;;;;;;;0.50;0.50;;;;;;;3.27;79.58;96700.25;29395;222;63009;-55
2022/11/28 00:44:00;;;;;;;0.60;0.60;;;;;;;3.29;79.75;96708.03;29394;380;64009;-72
2022/11/28 00:44:33;;;;;;;0.60;0.60;;;;;;;3.29;79.96;96703.50;29395;222;63009;-55
2022/11/28 00:45:05;;;;;;;0.60;0.60;;;;;;;3.31;79.85;96705.94;29395;209;63005;-55
2022/11/28 00:45:36;;;;;;;0.50;0.50;;;;;;;3.30;80.05;96707.81;29395;212;63009;-55
2022/11/28 00:46:07;;;;;;;0.57;0.57;;;;;;;3.31;79.80;96696.00;29395;218;63005;-55
2022/11/28 00:46:39;;;;;;;0.65;0.65;;;;;;;3.36;79.14;96700.63;29395;207;63009;-55
2022/11/28 00:47:11;;;;;;;0.52;0.52;;;;;;;3.41;79.01;96705.25;29394;229;64000;-56
2022/11/28 00:47:42;;;;;;;0.60;0.60;;;;;;;3.43;78.86;96697.75;29395;196;63009;-55
2022/11/28 00:48:13;;;;;;;0.60;0.60;;;;;;;3.45;78.67;96706.34;29395;280;63017;-55
2022/11/28 00:48:47;;;;;;;0.68;0.68;;;;;;;3.43;78.30;96698.56;29395;220;63008;-56
2022/11/28 00:49:18;;;;;;;0.60;0.60;;;;;;;3.41;78.72;96700.69;29394;248;64008;-55
2022/11/28 00:49:50;;;;;;;0.60;0.60;;;;;;;3.42;79.21;96698.81;29395;224;63009;-56
2022/11/28 00:50:21;;;;;;;0.50;0.50;;;;;;;3.39;78.82;96697.44;29395;229;63005;-55
2022/11/28 00:50:53;;;;;;;0.60;0.60;;;;;;;3.39;78.93;96697.44;29395;364;63009;-55
2022/11/28 00:51:30;;;;;;;0.60;0.60;;;;;;;3.39;79.17;96697.44;29395;232;63005;-55
2022/11/28 00:53:10;;;;;;;0.55;0.55;;;;;;;3.43;78.82;96701.25;88174;216;64005;-55
2022/11/28 00:53:43;;;;;;;0.50;0.50;;;;;;;3.43;78.82;96692.37;29394;207;64009;-55
2022/11/28 00:54:14;;;;;;;0.60;0.60;;;;;;;3.43;79.04;96692.37;29395;287;63005;-55
2022/11/28 00:54:45;;;;;;;0.60;0.60;;;;;;;3.43;79.01;96692.37;29395;252;63009;-55
2022/11/28 00:55:17;;;;;;;0.50;0.50;;;;;;;3.45;78.99;96690.28;29395;225;63005;-72
2022/11/28 00:55:48;;;;;;;0.70;0.70;;;;;;;3.45;78.64;96688.41;29395;201;63009;-55
2022/11/28 00:56:23;;;;;;;0.50;0.50;;;;;;;3.46;78.88;96691.88;29394;221;64009;-55
2022/11/28 00:56:54;;;;;;;0.60;0.60;;;;;;;3.47;78.66;96691.59;29395;198;63009;-55
2022/11/28 00:57:28;;;;;;;0.60;0.60;;;;;;;3.48;78.88;96687.06;29395;222;63005;-56
2022/11/28 00:57:59;;;;;;;0.60;0.60;;;;;;;3.48;78.71;96689.72;29395;244;63009;-70
2022/11/28 00:58:32;;;;;;;0.80;0.80;;;;;;;3.48;78.95;96690.53;29395;262;63004;-56
2022/11/28 00:59:03;;;;;;;0.55;0.55;;;;;;;3.49;79.20;96696.72;29395;197;63009;-55
2022/11/28 00:59:34;;;;;;;0.60;0.60;;;;;;;3.49;79.16;96692.16;29395;202;63004;-55
2022/11/28 01:00:08;;;;;;;0.60;0.60;;;;;;;3.49;79.08;96702.91;29395;238;63008;-56
2022/11/28 01:00:39;;;;;;;0.60;0.60;;;;;;;3.49;79.30;96696.72;29395;240;63004;-55
2022/11/28 01:01:17;;;;;;;0.60;0.60;;;;;;;3.49;79.26;96691.34;29395;220;63009;-70
2022/11/28 01:01:48;;;;;;;0.60;0.60;;;;;;;3.49;79.17;96691.34;29394;194;64009;-55
2022/11/28 01:02:20;;;;;;;0.60;0.60;;;;;;;3.49;79.17;96686.81;29395;214;63009;-55
2022/11/28 01:02:52;;;;;;;0.60;0.60;;;;;;;3.49;78.94;96691.34;29395;222;63005;-73
2022/11/28 01:03:23;;;;;;;0.60;0.60;;;;;;;3.49;78.76;96684.13;29395;312;63009;-55
2022/11/28 01:03:56;;;;;;;0.62;0.62;;;;;;;3.51;78.99;96684.69;29395;197;63005;-55
2022/11/28 01:04:28;;;;;;;0.55;0.55;;;;;;;3.53;78.72;96676.38;29395;212;63009;-55
2022/11/28 01:05:00;;;;;;;0.50;0.50;;;;;;;3.53;78.69;96674.50;29395;199;63004;-55
2022/11/28 01:05:31;;;;;;;0.50;0.50;;;;;;;3.55;78.58;96674.25;29395;206;63009;-56
2022/11/28 01:06:03;;;;;;;0.50;0.50;;;;;;;3.56;78.40;96681.25;29395;324;63004;-54
2022/11/28 01:06:38;;;;;;;0.60;0.60;;;;;;;3.57;78.40;96682.88;29395;236;63009;-55
2022/11/28 01:08:16;;;;;;;0.60;0.60;;;;;;;3.54;78.81;96689.53;88178;208;64005;-55
2022/11/28 01:08:48;;;;;;;0.60;0.60;;;;;;;3.58;78.94;96684.47;29394;280;64009;-55
2022/11/28 01:09:22;;;;;;;0.60;0.60;;;;;;;3.58;79.23;96689.84;29395;313;63005;-55
2022/11/28 01:09:55;;;;;;;0.57;0.57;;;;;;;3.57;78.96;96689.03;29394;208;64014;-55
2022/11/28 01:10:26;;;;;;;0.50;0.50;;;;;;;3.58;79.15;96679.13;29395;236;63005;-55
2022/11/28 01:10:58;;;;;;;0.57;0.57;;;;;;;3.61;78.72;96681.28;29395;302;63009;-55
2022/11/28 01:11:30;;;;;;;0.60;0.60;;;;;;;3.63;78.27;96677.28;29395;205;63005;-55
2022/11/28 01:12:01;;;;;;;0.55;0.55;;;;;;;3.64;77.91;96680.78;29395;228;63009;-55
2022/11/28 01:12:32;;;;;;;0.60;0.60;;;;;;;3.66;77.67;96675.97;29395;216;63005;-55
2022/11/28 01:13:03;;;;;;;0.60;0.60;;;;;;;3.67;77.30;96683.78;29394;208;64013;-56
2022/11/28 01:13:35;;;;;;;0.60;0.60;;;;;;;3.70;77.61;96672.53;29395;220;63004;-55
2022/11/28 01:14:07;;;;;;;0.57;0.57;;;;;;;3.70;77.36;96667.19;29395;202;63009;-55
2022/11/28 01:14:39;;;;;;;0.50;0.50;;;;;;;3.73;77.31;96665.03;29395;269;63004;-55
2022/11/28 01:15:13;;;;;;;0.50;0.50;;;;;;;3.74;77.15;96667.47;29395;249;63008;-55
2022/11/28 01:15:44;;;;;;;0.60;0.60;;;;;;;3.75;77.33;96663.72;29395;216;63004;-55
2022/11/28 01:16:16;;;;;;;0.60;0.60;;;;;;;3.77;76.86;96666.16;29395;226;63009;-55
2022/11/28 01:16:47;;;;;;;0.60;0.60;;;;;;;3.77;77.13;96671.53;29395;200;63005;-55
2022/11/28 01:17:19;;;;;;;0.60;0.60;;;;;;;3.76;77.00;96669.91;29394;253;64014;-56
2022/11/28 01:17:50;;;;;;;0.60;0.60;;;;;;;3.74;77.08;96667.47;29395;238;63005;-56
2022/11/28 01:18:21;;;;;;;0.57;0.57;;;;;;;3.72;77.14;96669.59;29394;224;64013;-56
2022/11/28 01:18:53;;;;;;;0.60;0.60;;;;;;;3.73;77.16;96665.84;29395;255;63005;-55
2022/11/28 01:19:24;;;;;;;0.60;0.60;;;;;;;3.74;76.97;96666.66;29395;204;63009;-55
2022/11/28 01:19:55;;;;;;;0.50;0.50;;;;;;;3.74;76.86;96662.13;29395;202;63004;-56
2022/11/28 01:20:26;;;;;;;0.50;0.50;;;;;;;3.75;76.69;96658.38;29394;202;64009;-55
2022/11/28 01:20:58;;;;;;;0.55;0.55;;;;;;;3.76;76.66;96665.34;29395;245;63004;-55
2022/11/28 01:21:29;;;;;;;0.50;0.50;;;;;;;3.76;76.60;96662.66;29394;205;64013;-55
2022/11/28 01:22:00;;;;;;;0.50;0.50;;;;;;;3.81;76.61;96662.69;29395;202;63004;-54
2022/11/28 01:22:33;;;;;;;0.50;0.50;;;;;;;3.81;76.56;96662.69;29395;198;63008;-56
2022/11/28 01:23:04;;;;;;;0.60;0.60;;;;;;;3.82;76.66;96663.50;29395;224;63004;-71
2022/11/28 01:23:36;;;;;;;0.60;0.60;;;;;;;3.82;76.52;96658.12;29395;230;63009;-55
2022/11/28 01:24:09;;;;;;;0.60;0.60;;;;;;;3.80;76.52;96666.47;29395;197;63005;-55
2022/11/28 01:24:41;;;;;;;0.60;0.60;;;;;;;3.81;76.58;96662.69;29395;207;63009;-55
2022/11/28 01:25:12;;;;;;;0.60;0.60;;;;;;;3.81;76.53;96665.38;29395;258;63005;-56
2022/11/28 01:25:43;;;;;;;0.50;0.50;;;;;;;3.83;76.06;96655.19;29395;213;63009;-55
2022/11/28 01:26:20;;;;;;;0.50;0.50;;;;;;;3.83;76.25;96665.94;29395;238;63005;-56
2022/11/28 01:26:52;;;;;;;0.60;0.60;;;;;;;3.80;76.41;96661.09;29394;226;64013;-55
2022/11/28 01:27:23;;;;;;;0.82;0.82;;;;;;;3.78;76.45;96662.41;29395;225;63004;-54
2022/11/28 01:27:54;;;;;;;0.50;0.50;;;;;;;3.77;76.37;96660.78;29395;251;63009;-55
2022/11/28 01:28:25;;;;;;;0.60;0.60;;;;;;;3.75;76.72;96657.56;29395;213;63000;-56
2022/11/28 01:28:58;;;;;;;0.52;0.52;;;;;;;3.74;76.55;96662.13;29395;225;63015;-54
2022/11/28 01:29:29;;;;;;;0.57;0.57;;;;;;;3.73;76.93;96665.84;29395;212;63004;-55
2022/11/28 01:30:00;;;;;;;0.60;0.60;;;;;;;3.73;76.51;96660.50;29395;209;63008;-55
2022/11/28 01:30:33;;;;;;;0.60;0.60;;;;;;;3.76;76.73;96659.16;29395;337;63005;-55
2022/11/28 01:31:07;;;;;;;0.60;0.60;;;;;;;3.75;76.66;96663.72;29394;347;64014;-54
2022/11/28 01:31:38;;;;;;;0.60;0.60;;;;;;;3.75;76.63;96669.09;29395;231;63005;-55
2022/11/28 01:32:09;;;;;;;0.50;0.50;;;;;;;3.74;76.41;96661.31;29395;204;63009;-55
2022/11/28 01:32:41;;;;;;;0.60;0.60;;;;;;;3.78;76.63;96662.41;29395;202;63005;-55
2022/11/28 01:33:12;;;;;;;0.60;0.60;;;;;;;3.80;76.15;96663.78;29395;215;63009;-55
2022/11/28 01:33:43;;;;;;;0.57;0.57;;;;;;;3.83;76.36;96663.25;29395;225;63009;-56
2022/11/28 01:34:15;;;;;;;0.60;0.60;;;;;;;3.83;76.18;96665.13;29395;198;63009;-55
2022/11/28 01:34:46;;;;;;;0.60;0.60;;;;;;;3.81;76.41;96668.06;29395;238;63004;-54
2022/11/28 01:35:18;;;;;;;0.60;0.60;;;;;;;3.82;76.10;96658.94;29395;231;63009;-55
2022/11/28 01:35:54;;;;;;;0.60;0.60;;;;;;;3.81;76.39;96662.69;29394;207;64009;-54
2022/11/28 01:36:26;;;;;;;0.60;0.60;;;;;;;3.77;76.35;96669.66;29395;218;63009;-55
2022/11/28 01:36:59;;;;;;;0.55;0.55;;;;;;;3.74;76.60;96661.31;29395;204;63000;-54
2022/11/28 01:37:30;;;;;;;0.50;0.50;;;;;;;3.72;76.78;96664.25;29395;196;63008;-55
2022/11/28 01:39:11;;;;;;;0.60;0.60;;;;;;;3.69;76.93;96664.75;88174;223;64004;-56
2022/11/28 01:39:42;;;;;;;0.60;0.60;;;;;;;3.68;77.25;96668.50;29394;209;64009;-56
2022/11/28 01:40:13;;;;;;;0.60;0.60;;;;;;;3.68;77.26;96671.19;29395;202;63010;-56
2022/11/28 01:40:45;;;;;;;0.50;0.50;;;;;;;3.64;77.26;96670.06;29395;221;63009;-56
2022/11/28 01:41:21;;;;;;;0.60;0.60;;;;;;;3.63;77.52;96671.94;29394;206;64009;-71
2022/11/28 01:41:52;;;;;;;0.60;0.60;;;;;;;3.64;77.64;96670.06;29394;211;64013;-55
2022/11/28 01:42:24;;;;;;;0.50;0.50;;;;;;;3.63;77.63;96668.44;29395;209;63005;-56
2022/11/28 01:42:55;;;;;;;0.60;0.60;;;;;;;3.63;77.39;96671.13;29395;232;63009;-56
2022/11/28 01:43:26;;;;;;;0.60;0.60;;;;;;;3.64;77.49;96672.75;29395;238;63004;-55
2022/11/28 01:44:25;;;;;;;0.60;0.60;;;;;;;3.64;77.59;96673.56;29395;204;63009;-56
2022/11/28 01:45:21;;;;;;;0.50;0.50;;;;;;;3.64;77.45;96667.38;29395;213;63004;-56
2022/11/28 01:45:56;;;;;;;0.50;0.50;;;;;;;3.64;77.70;96672.75;29395;237;63019;-56
2022/11/28 01:46:36;;;;;;;0.50;0.50;;;;;;;3.65;77.44;96669.00;29395;220;63005;-56
2022/11/28 01:47:08;;;;;;;0.60;0.60;;;;;;;3.67;77.51;96673.03;29416;226;64014;-55
2022/11/28 01:47:40;;;;;;;0.60;0.60;;;;;;;3.72;77.04;96664.25;29395;240;63005;-56
2022/11/28 01:48:17;;;;;;;0.50;0.50;;;;;;;3.72;76.99;96674.16;29395;234;63009;-55
2022/11/28 01:48:50;;;;;;;0.60;0.60;;;;;;;3.72;77.19;96669.59;29395;247;63005;-53
2022/11/28 01:49:27;;;;;;;0.50;0.50;;;;;;;3.68;77.02;96671.19;29395;224;63020;-56
2022/11/28 01:49:59;;;;;;;0.50;0.50;;;;;;;3.66;76.81;96663.37;29394;229;64009;-54
2022/11/28 01:50:32;;;;;;;0.50;0.50;;;;;;;3.66;77.09;96670.63;29395;283;63009;-54
2022/11/28 01:51:08;;;;;;;0.60;0.60;;;;;;;3.64;77.47;96673.56;29395;253;63004;-55
2022/11/28 01:51:43;;;;;;;0.50;0.50;;;;;;;3.62;77.40;96670.31;29395;208;63009;-56
2022/11/28 01:52:18;;;;;;;0.50;0.50;;;;;;;3.63;77.47;96666.56;29395;220;63004;-57
2022/11/28 01:52:56;;;;;;;0.60;0.60;;;;;;;3.62;77.35;96667.63;29395;218;63008;-56
2022/11/28 01:54:37;;;;;;;0.60;0.60;;;;;;;3.65;77.32;96659.06;88174;210;64004;-56
2022/11/28 01:55:11;;;;;;;0.60;0.60;;;;;;;3.65;77.30;96660.94;29394;207;64009;-55
2022/11/28 01:55:53;;;;;;;0.60;0.60;;;;;;;3.65;77.38;96666.31;29395;197;63005;-55
2022/11/28 01:56:28;;;;;;;0.55;0.55;;;;;;;3.63;77.37;96660.38;29395;238;63009;-55
2022/11/28 01:57:03;;;;;;;0.60;0.60;;;;;;;3.62;77.41;96658.78;29394;199;64000;-55
2022/11/28 01:57:35;;;;;;;0.60;0.60;;;;;;;3.63;77.48;96660.38;29395;227;63025;-55
2022/11/28 01:58:06;;;;;;;0.60;0.60;;;;;;;3.63;77.63;96657.72;29395;208;63004;-55
2022/11/28 01:58:43;;;;;;;0.57;0.57;;;;;;;3.63;77.44;96655.03;29395;199;63009;-57
2022/11/28 01:59:18;;;;;;;0.60;0.60;;;;;;;3.63;77.38;96655.03;29395;200;63004;-55
2022/11/28 02:00:07;;;;;;;0.60;0.60;;;;;;;3.63;77.43;96653.16;29395;299;63008;-56
2022/11/28 02:00:39;;;;;;;0.55;0.55;;;;;;;3.61;77.31;96654.47;29395;225;63010;-55
2022/11/28 02:01:11;;;;;;;0.60;0.60;;;;;;;3.60;77.37;96652.84;29395;207;63008;-56
2022/11/28 02:01:44;;;;;;;0.60;0.60;;;;;;;3.60;77.19;96655.53;29394;221;64009;-55
2022/11/28 02:02:46;;;;;;;0.57;0.57;;;;;;;3.63;77.15;96649.66;29395;226;63009;-55
2022/11/28 02:03:29;;;;;;;0.52;0.52;;;;;;;3.63;77.20;96653.16;29416;197;64009;-56
2022/11/28 02:04:03;;;;;;;0.52;0.52;;;;;;;3.63;77.12;96655.84;29394;211;64013;-56
2022/11/28 02:04:34;;;;;;;0.60;0.60;;;;;;;3.64;77.21;96659.31;29395;320;63005;-55
2022/11/28 02:05:08;;;;;;;0.68;0.68;;;;;;;3.63;77.13;96661.19;29395;272;63009;-55
2022/11/28 02:05:39;;;;;;;0.52;0.52;;;;;;;3.61;77.16;96663.31;29394;203;64009;-55
2022/11/28 02:06:16;;;;;;;0.50;0.50;;;;;;;3.60;77.64;96668.94;29395;197;63009;-55
2022/11/28 02:06:47;;;;;;;0.60;0.60;;;;;;;3.58;78.06;96661.16;29395;204;63004;-54
2022/11/28 02:07:19;;;;;;;0.52;0.52;;;;;;;3.57;78.32;96667.56;29395;205;63009;-56
2022/11/28 02:07:51;;;;;;;0.60;0.60;;;;;;;3.56;78.25;96657.91;29395;221;63004;-55
2022/11/28 02:08:24;;;;;;;0.50;0.50;;;;;;;3.57;78.11;96658.72;29395;221;63009;-56
2022/11/28 02:10:07;;;;;;;0.54;0.54;;;;;;;3.60;78.15;96655.53;87952;206;137000;-55
2022/11/28 02:11:10;;;;;;;0.50;0.50;;;;;;;3.64;77.46;96645.91;29394;221;64009;-55
2022/11/28 02:12:15;;;;;;;0.50;0.50;;;;;;;3.66;77.31;96647.28;29395;202;63005;-56
2022/11/28 02:13:27;;;;;;;0.50;0.50;;;;;;;3.70;77.29;96644.91;29395;286;63025;-56
2022/11/28 02:14:37;;;;;;;0.60;0.60;;;;;;;3.72;76.96;96648.13;29416;216;64004;-55
2022/11/28 02:16:09;;;;;;;0.60;0.60;;;;;;;3.72;76.97;96641.97;29394;252;64009;-73
2022/11/28 02:17:11;;;;;;;0.60;0.60;;;;;;;3.72;77.01;96632.03;29395;218;63008;-55
2022/11/28 02:18:35;;;;;;;0.60;0.60;;;;;;;3.74;76.55;96635.28;29417;228;63005;-56
2022/11/28 02:19:55;;;;;;;0.60;0.60;;;;;;;3.74;76.62;96632.59;29395;242;63009;-56
2022/11/28 02:21:05;;;;;;;0.60;0.60;;;;;;;3.68;77.17;96625.56;29394;287;64009;-55
2022/11/28 02:22:00;;;;;;;0.60;0.60;;;;;;;3.65;77.20;96620.69;29371;223;64013;-56
2022/11/28 02:23:10;;;;;;;0.60;0.60;;;;;;;3.70;77.05;96623.44;29373;220;63004;-55
2022/11/28 02:24:19;;;;;;;0.60;0.60;;;;;;;3.71;76.76;96614.31;29371;224;64013;-55
2022/11/28 02:26:34;;;;;;;0.60;0.60;;;;;;;3.72;76.58;96610.56;88174;210;64004;-55
2022/11/28 02:27:46;;;;;;;0.60;0.60;;;;;;;3.73;76.67;96606.81;29394;274;64025;-55
2022/11/28 02:28:53;;;;;;;0.60;0.60;;;;;;;3.67;77.24;96607.84;29439;235;63005;-54
2022/11/28 02:30:00;;;;;;;0.57;0.57;;;;;;;3.66;76.96;96606.22;29373;206;63009;-55
2022/11/28 02:31:32;;;;;;;0.60;0.60;;;;;;;3.62;77.23;96605.91;29373;210;63004;-56
2022/11/28 02:32:58;;;;;;;0.60;0.60;;;;;;;3.62;77.11;96600.56;29394;231;64013;-55
2022/11/28 02:33:36;;;;;;;0.70;0.70;;;;;;;3.58;77.58;96599.44;29373;218;63010;-55
2022/11/28 02:34:22;;;;;;;0.52;0.52;;;;;;;3.60;77.12;96602.69;29395;323;63009;-55
2022/11/28 02:35:34;;;;;;;0.60;0.60;;;;;;;3.58;76.89;96590.59;29371;255;64009;-56
2022/11/28 02:36:32;;;;;;;0.60;0.60;;;;;;;3.67;76.57;96586.37;29395;299;63005;-55
2022/11/28 02:37:23;;;;;;;0.60;0.60;;;;;;;3.74;76.22;96586.97;29395;202;63009;-69
2022/11/28 02:38:33;;;;;;;0.60;0.60;;;;;;;3.77;76.07;96573.03;29417;245;63004;-55
2022/11/28 02:39:36;;;;;;;0.60;0.60;;;;;;;3.80;75.99;96585.16;29394;203;64013;-56
2022/11/28 02:41:44;;;;;;;0.79;0.76;;;;;;;3.68;76.40;96588.00;88178;216;64005;-55
2022/11/28 02:42:27;;;;;;;0.70;0.70;;;;;;;3.65;76.23;96583.12;29416;222;64004;-55
2022/11/28 02:43:29;;;;;;;0.60;0.60;;;;;;;3.70;76.18;96577.81;29395;210;63009;-56
2022/11/28 02:44:30;;;;;;;0.60;0.60;;;;;;;3.74;76.01;96576.25;29438;199;64008;-55
2022/11/28 02:45:19;;;;;;;1.25;1.15;;;;;;;3.81;75.42;96573.34;29394;326;64009;-56
2022/11/28 02:46:05;;;;;;;0.60;0.60;;;;;;;3.84;75.25;96570.13;29373;303;63009;-57
2022/11/28 02:47:11;;;;;;;0.88;0.88;;;;;;;3.73;75.71;96579.19;29373;212;63005;-55
2022/11/28 02:47:49;;;;;;;0.60;0.60;;;;;;;3.65;75.95;96593.87;29373;227;63009;-56
2022/11/28 02:49:05;;;;;;;2.00;1.95;;;;;;;3.56;76.85;96606.12;29373;309;63008;-55
2022/11/28 02:49:56;;;;;;;0.70;0.70;;;;;;;3.50;77.15;96596.41;29373;339;63009;-54
2022/11/28 02:50:37;;;;;;;0.60;0.60;;;;;;;3.47;77.50;96591.56;29393;314;64009;-55
2022/11/28 02:51:16;;;;;;;0.60;0.60;;;;;;;3.47;77.47;96588.88;29417;221;63009;-56
2022/11/28 02:52:30;;;;;;;0.60;0.60;;;;;;;3.57;76.75;96576.38;29395;230;63018;-57
2022/11/28 02:53:18;;;;;;;0.70;0.70;;;;;;;3.62;76.15;96580.97;29373;221;63009;-56
2022/11/28 02:53:50;;;;;;;0.60;0.60;;;;;;;3.58;76.18;96587.91;29373;227;63005;-56
2022/11/28 02:54:23;;;;;;;0.60;0.60;;;;;;;3.56;76.48;96584.66;29373;197;63009;-68
2022/11/28 02:54:56;;;;;;;0.60;0.60;;;;;;;3.61;76.15;96580.16;29371;226;64009;-56
2022/11/28 02:56:34;;;;;;;1.09;1.07;;;;;;;3.76;75.70;96587.53;88178;202;64004;-56
2022/11/28 02:57:05;;;;;;;0.60;0.60;;;;;;;3.71;75.49;96579.44;29394;296;64009;-55
2022/11/28 02:57:38;;;;;;;0.60;0.60;;;;;;;3.70;75.41;96580.50;29395;197;63005;-57
2022/11/28 02:58:10;;;;;;;0.60;0.60;;;;;;;3.63;75.80;96577.22;29395;233;63009;-56
2022/11/28 02:58:42;;;;;;;0.60;0.60;;;;;;;3.57;76.34;96570.19;29395;234;63005;-55
2022/11/28 02:59:46;;;;;;;0.60;0.60;;;;;;;3.54;76.47;96559.97;29395;251;63009;-56
2022/11/28 03:00:42;;;;;;;0.60;0.60;;;;;;;3.57;76.51;96559.47;29394;202;64009;-55
2022/11/28 03:01:26;;;;;;;0.60;0.60;;;;;;;3.55;76.53;96559.72;29373;272;63009;-56
2022/11/28 03:02:00;;;;;;;0.50;0.50;;;;;;;3.54;76.64;96559.97;29373;247;63004;-55
2022/11/28 03:02:32;;;;;;;0.80;0.80;;;;;;;3.49;76.74;96565.28;29373;196;63008;-56
2022/11/28 03:03:27;;;;;;;0.60;0.60;;;;;;;3.43;76.86;96569.81;29395;248;63005;-71
2022/11/28 03:04:47;;;;;;;0.60;0.60;;;;;;;3.33;77.52;96581.25;29395;217;63009;-55
2022/11/28 03:05:45;;;;;;;0.60;0.60;;;;;;;3.25;78.44;96573.66;29394;216;64009;-72
2022/11/28 03:06:58;;;;;;;0.70;0.70;;;;;;;3.21;78.81;96561.03;29373;239;63009;-55
2022/11/28 03:08:35;;;;;;;1.85;1.02;;;;;;;3.49;77.40;96551.88;29417;210;63004;-55
2022/11/28 03:09:58;;;;;;;0.70;0.70;;;;;;;3.50;76.69;96558.84;29395;223;63009;-54
2022/11/28 03:11:57;;;;;;;0.72;0.72;;;;;;;3.41;77.23;96555.03;88178;199;64004;-55
2022/11/28 03:13:06;;;;;;;0.60;0.60;;;;;;;3.35;77.19;96551.50;29394;229;64009;-55
2022/11/28 03:13:56;;;;;;;0.60;0.60;;;;;;;3.39;77.11;96546.44;29373;197;63008;-69
2022/11/28 03:14:47;;;;;;;7.18;6.90;;;;;;;3.31;77.62;96556.56;29477;253;127004;-56
2022/11/28 03:15:33;;;;;;;0.60;0.60;;;;;;;3.24;77.91;96552.47;29417;230;63004;-55
2022/11/28 03:16:37;;;;;;;0.70;0.70;;;;;;;3.17;78.48;96551.88;29394;300;64014;-55
2022/11/28 03:17:38;;;;;;;0.62;0.62;;;;;;;3.15;78.31;96557.47;29373;233;63005;-55
2022/11/28 03:18:45;;;;;;;0.60;0.60;;;;;;;3.12;78.70;96555.31;29373;306;63009;-55
2022/11/28 03:19:26;;;;;;;0.47;0.47;;;;;;;3.10;78.79;96560.12;29373;304;63005;-55
2022/11/28 03:20:22;;;;;;;0.60;0.60;;;;;;;3.11;78.85;96551.03;29373;221;63009;-55
2022/11/28 03:21:00;;;;;;;0.70;0.70;;;;;;;3.16;78.42;96553.72;29373;393;63004;-56